sensor_id;sensor_type;location;lat;lon;timestamp;P1;durP1;ratioP1;P2;durP2;ratioP2
55210;SDS011;41082;52.822;6.666;2022-09-21T00:53:33;0.73;;;0.10;;
55210;SDS011;41082;52.822;6.666;2022-09-21T00:56:00;1.65;;;0.40;;
55210;SDS011;41082;52.822;6.666;2022-09-21T00:58:28;0.47;;;0.15;;
55210;SDS011;41082;52.822;6.666;2022-09-21T01:00:59;2.45;;;0.10;;
55210;SDS011;41082;52.822;6.666;2022-09-21T01:03:25;0.55;;;0.10;;
55210;SDS011;41082;52.822;6.666;2022-09-21T01:05:53;0.65;;;0.20;;
55210;SDS011;41082;52.822;6.666;2022-09-21T01:08:19;1.55;;;0.40;;
55210;SDS011;41082;52.822;6.666;2022-09-21T01:10:59;1.58;;;0.30;;
55210;SDS011;41082;52.822;6.666;2022-09-21T01:13:45;0.73;;;0.22;;
55210;SDS011;41082;52.822;6.666;2022-09-21T01:16:34;1.30;;;0.20;;
55210;SDS011;41082;52.822;6.666;2022-09-21T01:30:32;2.33;;;0.35;;
55210;SDS011;41082;52.822;6.666;2022-09-21T01:35:51;1.10;;;0.20;;
55210;SDS011;41082;52.822;6.666;2022-09-21T01:40:50;0.93;;;0.20;;
55210;SDS011;41082;52.822;6.666;2022-09-21T01:43:20;0.20;;;0.10;;
55210;SDS011;41082;52.822;6.666;2022-09-21T01:45:57;0.28;;;0.10;;
55210;SDS011;41082;52.822;6.666;2022-09-21T01:48:29;0.45;;;0.13;;
55210;SDS011;41082;52.822;6.666;2022-09-21T01:50:57;1.50;;;0.28;;
55210;SDS011;41082;52.822;6.666;2022-09-21T01:53:30;2.28;;;0.30;;
55210;SDS011;41082;52.822;6.666;2022-09-21T01:56:03;1.15;;;0.20;;
55210;SDS011;41082;52.822;6.666;2022-09-21T01:58:35;1.10;;;0.20;;
55210;SDS011;41082;52.822;6.666;2022-09-21T02:01:08;1.20;;;0.35;;
55210;SDS011;41082;52.822;6.666;2022-09-21T02:03:40;0.45;;;0.20;;
55210;SDS011;41082;52.822;6.666;2022-09-21T02:06:11;0.20;;;0.03;;
55210;SDS011;41082;52.822;6.666;2022-09-21T02:08:39;0.10;;;0.00;;
55210;SDS011;41082;52.822;6.666;2022-09-21T02:11:05;0.20;;;0.00;;
55210;SDS011;41082;52.822;6.666;2022-09-21T02:13:33;0.00;;;0.00;;
55210;SDS011;41082;52.822;6.666;2022-09-21T02:18:42;1.02;;;0.00;;
55210;SDS011;41082;52.822;6.666;2022-09-21T02:21:37;0.10;;;0.00;;
55210;SDS011;41082;52.822;6.666;2022-09-21T02:35:01;1.05;;;0.20;;
55210;SDS011;41082;52.822;6.666;2022-09-21T02:37:37;1.00;;;0.10;;
55210;SDS011;41082;52.822;6.666;2022-09-21T02:40:14;0.70;;;0.20;;
55210;SDS011;41082;52.822;6.666;2022-09-21T02:43:11;1.30;;;0.17;;
55210;SDS011;41082;52.822;6.666;2022-09-21T02:48:53;1.98;;;0.10;;
55210;SDS011;41082;52.822;6.666;2022-09-21T02:51:28;0.65;;;0.10;;
55210;SDS011;41082;52.822;6.666;2022-09-21T02:54:01;3.17;;;0.57;;
55210;SDS011;41082;52.822;6.666;2022-09-21T02:56:30;3.90;;;0.40;;
55210;SDS011;41082;52.822;6.666;2022-09-21T02:58:56;1.98;;;0.40;;
55210;SDS011;41082;52.822;6.666;2022-09-21T03:01:25;3.40;;;0.30;;
55210;SDS011;41082;52.822;6.666;2022-09-21T03:03:52;1.83;;;0.20;;
55210;SDS011;41082;52.822;6.666;2022-09-21T03:06:17;2.30;;;0.22;;
55210;SDS011;41082;52.822;6.666;2022-09-21T03:08:43;2.35;;;0.30;;
55210;SDS011;41082;52.822;6.666;2022-09-21T03:11:08;1.08;;;0.30;;
55210;SDS011;41082;52.822;6.666;2022-09-21T03:13:35;2.30;;;0.77;;
55210;SDS011;41082;52.822;6.666;2022-09-21T03:16:04;1.25;;;0.20;;
55210;SDS011;41082;52.822;6.666;2022-09-21T03:18:31;2.30;;;0.55;;
55210;SDS011;41082;52.822;6.666;2022-09-21T03:20:57;1.08;;;0.20;;
55210;SDS011;41082;52.822;6.666;2022-09-21T03:23:23;0.80;;;0.10;;
55210;SDS011;41082;52.822;6.666;2022-09-21T03:25:49;1.23;;;0.10;;
55210;SDS011;41082;52.822;6.666;2022-09-21T03:28:16;0.43;;;0.10;;
55210;SDS011;41082;52.822;6.666;2022-09-21T03:30:43;0.38;;;0.20;;
55210;SDS011;41082;52.822;6.666;2022-09-21T03:33:08;1.38;;;0.10;;
55210;SDS011;41082;52.822;6.666;2022-09-21T03:35:36;0.32;;;0.13;;
55210;SDS011;41082;52.822;6.666;2022-09-21T03:38:02;0.38;;;0.10;;
55210;SDS011;41082;52.822;6.666;2022-09-21T03:40:28;0.77;;;0.20;;
55210;SDS011;41082;52.822;6.666;2022-09-21T03:42:53;0.20;;;0.10;;
55210;SDS011;41082;52.822;6.666;2022-09-21T03:45:19;1.65;;;0.13;;
55210;SDS011;41082;52.822;6.666;2022-09-21T03:47:58;1.00;;;0.20;;
55210;SDS011;41082;52.822;6.666;2022-09-21T03:50:24;0.68;;;0.20;;
55210;SDS011;41082;52.822;6.666;2022-09-21T03:52:52;2.63;;;0.10;;
55210;SDS011;41082;52.822;6.666;2022-09-21T03:55:18;0.43;;;0.10;;
55210;SDS011;41082;52.822;6.666;2022-09-21T03:57:43;0.15;;;0.00;;
55210;SDS011;41082;52.822;6.666;2022-09-21T04:00:09;0.80;;;0.00;;
55210;SDS011;41082;52.822;6.666;2022-09-21T04:02:36;0.10;;;0.00;;
55210;SDS011;41082;52.822;6.666;2022-09-21T04:05:04;0.00;;;0.00;;
55210;SDS011;41082;52.822;6.666;2022-09-21T04:07:30;0.10;;;0.00;;
55210;SDS011;41082;52.822;6.666;2022-09-21T04:10:03;0.57;;;0.00;;
55210;SDS011;41082;52.822;6.666;2022-09-21T04:12:33;0.80;;;0.00;;
55210;SDS011;41082;52.822;6.666;2022-09-21T04:15:00;0.00;;;0.00;;
55210;SDS011;41082;52.822;6.666;2022-09-21T04:17:26;0.15;;;0.00;;
55210;SDS011;41082;52.822;6.666;2022-09-21T04:19:52;1.45;;;0.00;;
55210;SDS011;41082;52.822;6.666;2022-09-21T04:22:17;0.05;;;0.00;;
55210;SDS011;41082;52.822;6.666;2022-09-21T04:24:43;2.78;;;0.00;;
55210;SDS011;41082;52.822;6.666;2022-09-21T04:27:09;0.40;;;0.10;;
55210;SDS011;41082;52.822;6.666;2022-09-21T04:29:36;0.57;;;0.00;;
55210;SDS011;41082;52.822;6.666;2022-09-21T04:32:02;0.40;;;0.05;;
55210;SDS011;41082;52.822;6.666;2022-09-21T04:34:28;0.20;;;0.10;;
55210;SDS011;41082;52.822;6.666;2022-09-21T04:36:55;1.80;;;0.10;;
55210;SDS011;41082;52.822;6.666;2022-09-21T04:39:22;1.88;;;0.10;;
55210;SDS011;41082;52.822;6.666;2022-09-21T04:41:48;1.90;;;0.10;;
55210;SDS011;41082;52.822;6.666;2022-09-21T04:44:14;0.70;;;0.20;;
55210;SDS011;41082;52.822;6.666;2022-09-21T04:46:39;3.47;;;0.20;;
55210;SDS011;41082;52.822;6.666;2022-09-21T04:49:06;0.60;;;0.10;;
55210;SDS011;41082;52.822;6.666;2022-09-21T04:51:32;1.08;;;0.00;;
55210;SDS011;41082;52.822;6.666;2022-09-21T04:53:58;2.65;;;0.20;;
55210;SDS011;41082;52.822;6.666;2022-09-21T04:56:24;0.45;;;0.00;;
55210;SDS011;41082;52.822;6.666;2022-09-21T04:58:50;2.08;;;0.10;;
55210;SDS011;41082;52.822;6.666;2022-09-21T05:01:15;0.40;;;0.00;;
55210;SDS011;41082;52.822;6.666;2022-09-21T05:03:41;0.68;;;0.10;;
55210;SDS011;41082;52.822;6.666;2022-09-21T05:06:06;0.30;;;0.10;;
55210;SDS011;41082;52.822;6.666;2022-09-21T05:08:33;0.68;;;0.05;;
55210;SDS011;41082;52.822;6.666;2022-09-21T05:11:17;1.02;;;0.00;;
55210;SDS011;41082;52.822;6.666;2022-09-21T05:13:43;0.57;;;0.05;;
55210;SDS011;41082;52.822;6.666;2022-09-21T05:16:09;0.75;;;0.10;;
55210;SDS011;41082;52.822;6.666;2022-09-21T05:18:35;0.70;;;0.20;;
55210;SDS011;41082;52.822;6.666;2022-09-21T05:21:02;2.00;;;0.20;;
55210;SDS011;41082;52.822;6.666;2022-09-21T05:23:28;2.00;;;0.30;;
55210;SDS011;41082;52.822;6.666;2022-09-21T05:25:55;2.05;;;0.30;;
55210;SDS011;41082;52.822;6.666;2022-09-21T05:28:22;4.00;;;0.22;;
55210;SDS011;41082;52.822;6.666;2022-09-21T05:30:58;0.82;;;0.20;;
55210;SDS011;41082;52.822;6.666;2022-09-21T05:33:43;1.85;;;0.20;;
55210;SDS011;41082;52.822;6.666;2022-09-21T05:38:47;1.63;;;0.10;;
55210;SDS011;41082;52.822;6.666;2022-09-21T05:41:13;0.98;;;0.20;;
55210;SDS011;41082;52.822;6.666;2022-09-21T05:43:38;0.98;;;0.22;;
55210;SDS011;41082;52.822;6.666;2022-09-21T05:46:12;3.25;;;0.20;;
55210;SDS011;41082;52.822;6.666;2022-09-21T05:48:57;3.38;;;0.20;;
55210;SDS011;41082;52.822;6.666;2022-09-21T05:54:01;1.15;;;0.10;;
55210;SDS011;41082;52.822;6.666;2022-09-21T06:04:19;0.60;;;0.10;;
55210;SDS011;41082;52.822;6.666;2022-09-21T06:06:44;0.35;;;0.10;;
55210;SDS011;41082;52.822;6.666;2022-09-21T06:09:10;2.90;;;0.22;;
55210;SDS011;41082;52.822;6.666;2022-09-21T06:11:36;2.60;;;0.20;;
55210;SDS011;41082;52.822;6.666;2022-09-21T06:14:02;0.40;;;0.20;;
55210;SDS011;41082;52.822;6.666;2022-09-21T06:16:37;0.93;;;0.20;;
55210;SDS011;41082;52.822;6.666;2022-09-21T06:19:04;2.72;;;0.20;;
55210;SDS011;41082;52.822;6.666;2022-09-21T06:21:30;1.48;;;0.20;;
55210;SDS011;41082;52.822;6.666;2022-09-21T06:23:55;0.93;;;0.30;;
55210;SDS011;41082;52.822;6.666;2022-09-21T06:26:21;1.27;;;0.10;;
55210;SDS011;41082;52.822;6.666;2022-09-21T06:28:46;0.43;;;0.00;;
55210;SDS011;41082;52.822;6.666;2022-09-21T06:31:12;1.48;;;0.17;;
55210;SDS011;41082;52.822;6.666;2022-09-21T06:33:37;3.80;;;0.10;;
55210;SDS011;41082;52.822;6.666;2022-09-21T06:36:03;1.23;;;0.10;;
55210;SDS011;41082;52.822;6.666;2022-09-21T06:38:29;1.27;;;0.30;;
55210;SDS011;41082;52.822;6.666;2022-09-21T06:40:59;1.00;;;0.20;;
55210;SDS011;41082;52.822;6.666;2022-09-21T06:43:26;2.50;;;0.40;;
55210;SDS011;41082;52.822;6.666;2022-09-21T06:45:52;1.85;;;0.30;;
55210;SDS011;41082;52.822;6.666;2022-09-21T06:48:19;2.65;;;0.40;;
55210;SDS011;41082;52.822;6.666;2022-09-21T06:50:45;1.30;;;0.40;;
55210;SDS011;41082;52.822;6.666;2022-09-21T06:53:11;2.10;;;0.47;;
55210;SDS011;41082;52.822;6.666;2022-09-21T06:55:37;1.90;;;0.43;;
55210;SDS011;41082;52.822;6.666;2022-09-21T06:58:03;2.38;;;0.60;;
55210;SDS011;41082;52.822;6.666;2022-09-21T07:00:29;3.53;;;0.60;;
55210;SDS011;41082;52.822;6.666;2022-09-21T07:02:55;5.78;;;0.70;;
55210;SDS011;41082;52.822;6.666;2022-09-21T07:05:21;2.35;;;1.10;;
55210;SDS011;41082;52.822;6.666;2022-09-21T07:07:46;2.83;;;0.70;;
55210;SDS011;41082;52.822;6.666;2022-09-21T07:10:12;2.75;;;0.82;;
55210;SDS011;41082;52.822;6.666;2022-09-21T07:12:38;2.83;;;0.70;;
55210;SDS011;41082;52.822;6.666;2022-09-21T07:15:04;3.63;;;0.70;;
55210;SDS011;41082;52.822;6.666;2022-09-21T07:17:34;3.33;;;0.98;;
55210;SDS011;41082;52.822;6.666;2022-09-21T07:20:01;3.35;;;0.88;;
55210;SDS011;41082;52.822;6.666;2022-09-21T07:22:28;3.70;;;0.82;;
55210;SDS011;41082;52.822;6.666;2022-09-21T07:24:55;5.70;;;1.30;;
55210;SDS011;41082;52.822;6.666;2022-09-21T07:27:21;4.75;;;1.27;;
55210;SDS011;41082;52.822;6.666;2022-09-21T07:29:48;2.97;;;1.27;;
55210;SDS011;41082;52.822;6.666;2022-09-21T07:32:13;2.55;;;1.50;;
55210;SDS011;41082;52.822;6.666;2022-09-21T07:34:39;4.38;;;2.10;;
55210;SDS011;41082;52.822;6.666;2022-09-21T07:37:04;3.13;;;2.03;;
55210;SDS011;41082;52.822;6.666;2022-09-21T07:39:30;5.03;;;2.97;;
55210;SDS011;41082;52.822;6.666;2022-09-21T07:41:55;5.28;;;2.65;;
55210;SDS011;41082;52.822;6.666;2022-09-21T07:44:22;5.85;;;2.70;;
55210;SDS011;41082;52.822;6.666;2022-09-21T07:46:49;7.38;;;2.28;;
55210;SDS011;41082;52.822;6.666;2022-09-21T07:49:14;6.20;;;2.33;;
55210;SDS011;41082;52.822;6.666;2022-09-21T07:51:40;6.78;;;2.58;;
55210;SDS011;41082;52.822;6.666;2022-09-21T07:54:07;6.30;;;2.40;;
55210;SDS011;41082;52.822;6.666;2022-09-21T07:56:35;7.63;;;3.03;;
55210;SDS011;41082;52.822;6.666;2022-09-21T07:59:02;2.97;;;2.42;;
55210;SDS011;41082;52.822;6.666;2022-09-21T08:01:35;13.35;;;3.63;;
55210;SDS011;41082;52.822;6.666;2022-09-21T08:04:03;6.15;;;2.97;;
55210;SDS011;41082;52.822;6.666;2022-09-21T08:06:30;7.05;;;2.67;;
55210;SDS011;41082;52.822;6.666;2022-09-21T08:08:57;7.25;;;2.30;;
55210;SDS011;41082;52.822;6.666;2022-09-21T08:11:24;7.65;;;2.65;;
55210;SDS011;41082;52.822;6.666;2022-09-21T08:13:51;8.27;;;2.50;;
55210;SDS011;41082;52.822;6.666;2022-09-21T08:16:17;8.13;;;2.55;;
55210;SDS011;41082;52.822;6.666;2022-09-21T08:18:43;9.48;;;2.70;;
55210;SDS011;41082;52.822;6.666;2022-09-21T08:21:09;8.93;;;2.25;;
55210;SDS011;41082;52.822;6.666;2022-09-21T08:23:35;6.28;;;1.95;;
55210;SDS011;41082;52.822;6.666;2022-09-21T08:26:04;5.47;;;1.83;;
55210;SDS011;41082;52.822;6.666;2022-09-21T08:28:31;5.43;;;1.70;;
55210;SDS011;41082;52.822;6.666;2022-09-21T08:31:02;8.73;;;1.95;;
55210;SDS011;41082;52.822;6.666;2022-09-21T08:33:30;6.47;;;2.07;;
55210;SDS011;41082;52.822;6.666;2022-09-21T08:35:57;6.35;;;1.65;;
55210;SDS011;41082;52.822;6.666;2022-09-21T08:38:24;6.93;;;1.10;;
55210;SDS011;41082;52.822;6.666;2022-09-21T08:40:51;6.00;;;1.10;;
55210;SDS011;41082;52.822;6.666;2022-09-21T08:43:37;6.28;;;1.20;;
55210;SDS011;41082;52.822;6.666;2022-09-21T08:46:08;8.10;;;1.55;;
55210;SDS011;41082;52.822;6.666;2022-09-21T08:48:40;11.32;;;1.20;;
55210;SDS011;41082;52.822;6.666;2022-09-21T08:51:11;8.57;;;1.23;;
55210;SDS011;41082;52.822;6.666;2022-09-21T08:53:45;6.10;;;0.90;;
55210;SDS011;41082;52.822;6.666;2022-09-21T08:56:14;11.77;;;1.30;;
55210;SDS011;41082;52.822;6.666;2022-09-21T08:58:40;10.10;;;1.00;;
55210;SDS011;41082;52.822;6.666;2022-09-21T09:07:03;9.35;;;1.05;;
55210;SDS011;41082;52.822;6.666;2022-09-21T09:09:53;8.00;;;0.90;;
55210;SDS011;41082;52.822;6.666;2022-09-21T09:21:04;4.53;;;0.52;;
55210;SDS011;41082;52.822;6.666;2022-09-21T09:23:37;3.90;;;0.43;;
55210;SDS011;41082;52.822;6.666;2022-09-21T09:26:05;9.60;;;0.57;;
55210;SDS011;41082;52.822;6.666;2022-09-21T09:31:27;4.78;;;0.60;;
55210;SDS011;41082;52.822;6.666;2022-09-21T09:36:32;4.53;;;0.55;;
55210;SDS011;41082;52.822;6.666;2022-09-21T09:39:03;6.47;;;0.50;;
55210;SDS011;41082;52.822;6.666;2022-09-21T09:44:27;8.27;;;0.63;;
55210;SDS011;41082;52.822;6.666;2022-09-21T09:47:28;7.72;;;1.30;;
55210;SDS011;41082;52.822;6.666;2022-09-21T09:52:39;5.65;;;0.52;;
55210;SDS011;41082;52.822;6.666;2022-09-21T09:55:10;6.78;;;0.40;;
55210;SDS011;41082;52.822;6.666;2022-09-21T09:57:45;6.78;;;1.17;;
55210;SDS011;41082;52.822;6.666;2022-09-21T10:00:12;4.90;;;0.30;;
55210;SDS011;41082;52.822;6.666;2022-09-21T10:05:23;7.10;;;0.50;;
55210;SDS011;41082;52.822;6.666;2022-09-21T10:07:54;3.90;;;0.30;;
55210;SDS011;41082;52.822;6.666;2022-09-21T10:15:44;6.10;;;0.32;;
55210;SDS011;41082;52.822;6.666;2022-09-21T10:18:34;3.15;;;0.40;;
55210;SDS011;41082;52.822;6.666;2022-09-21T10:21:08;5.97;;;0.50;;
55210;SDS011;41082;52.822;6.666;2022-09-21T10:23:50;3.17;;;0.20;;
55210;SDS011;41082;52.822;6.666;2022-09-21T10:26:41;5.72;;;0.30;;
55210;SDS011;41082;52.822;6.666;2022-09-21T10:34:37;5.13;;;0.40;;
55210;SDS011;41082;52.822;6.666;2022-09-21T10:37:22;3.28;;;0.22;;
55210;SDS011;41082;52.822;6.666;2022-09-21T10:39:53;4.63;;;0.32;;
55210;SDS011;41082;52.822;6.666;2022-09-21T10:42:19;5.00;;;0.20;;
55210;SDS011;41082;52.822;6.666;2022-09-21T10:47:16;4.40;;;0.35;;
55210;SDS011;41082;52.822;6.666;2022-09-21T10:49:46;3.25;;;0.20;;
55210;SDS011;41082;52.822;6.666;2022-09-21T10:52:29;5.88;;;0.50;;
55210;SDS011;41082;52.822;6.666;2022-09-21T10:55:03;3.30;;;0.45;;
55210;SDS011;41082;52.822;6.666;2022-09-21T10:57:29;5.18;;;0.30;;
55210;SDS011;41082;52.822;6.666;2022-09-21T10:59:57;6.00;;;0.30;;
55210;SDS011;41082;52.822;6.666;2022-09-21T11:02:36;5.93;;;0.35;;
55210;SDS011;41082;52.822;6.666;2022-09-21T11:05:13;3.30;;;0.30;;
55210;SDS011;41082;52.822;6.666;2022-09-21T11:08:05;5.50;;;0.40;;
55210;SDS011;41082;52.822;6.666;2022-09-21T11:13:57;3.80;;;0.10;;
55210;SDS011;41082;52.822;6.666;2022-09-21T11:16:33;4.45;;;0.15;;
55210;SDS011;41082;52.822;6.666;2022-09-21T11:21:53;3.63;;;0.93;;
55210;SDS011;41082;52.822;6.666;2022-09-21T11:27:09;6.88;;;0.30;;
55210;SDS011;41082;52.822;6.666;2022-09-21T11:30:21;2.85;;;0.30;;
55210;SDS011;41082;52.822;6.666;2022-09-21T11:35:52;2.83;;;0.40;;
55210;SDS011;41082;52.822;6.666;2022-09-21T11:49:06;4.85;;;0.47;;
55210;SDS011;41082;52.822;6.666;2022-09-21T11:52:25;4.57;;;0.20;;
55210;SDS011;41082;52.822;6.666;2022-09-21T11:55:14;4.68;;;0.57;;
55210;SDS011;41082;52.822;6.666;2022-09-21T11:57:22;4.35;;;0.20;;
55210;SDS011;41082;52.822;6.666;2022-09-21T12:00:12;7.13;;;0.22;;
55210;SDS011;41082;52.822;6.666;2022-09-21T12:02:50;3.78;;;0.20;;
55210;SDS011;41082;52.822;6.666;2022-09-21T12:05:33;4.35;;;0.20;;
55210;SDS011;41082;52.822;6.666;2022-09-21T12:10:58;2.95;;;0.30;;
55210;SDS011;41082;52.822;6.666;2022-09-21T12:16:50;5.00;;;0.30;;
55210;SDS011;41082;52.822;6.666;2022-09-21T12:19:32;4.60;;;0.47;;
55210;SDS011;41082;52.822;6.666;2022-09-21T12:22:08;5.00;;;0.20;;
55210;SDS011;41082;52.822;6.666;2022-09-21T12:24:39;6.55;;;0.47;;
55210;SDS011;41082;52.822;6.666;2022-09-21T12:27:14;5.15;;;0.40;;
55210;SDS011;41082;52.822;6.666;2022-09-21T12:29:49;7.35;;;0.50;;
55210;SDS011;41082;52.822;6.666;2022-09-21T12:34:55;4.45;;;0.30;;
55210;SDS011;41082;52.822;6.666;2022-09-21T12:37:32;3.47;;;0.28;;
55210;SDS011;41082;52.822;6.666;2022-09-21T12:40:05;3.45;;;0.22;;
55210;SDS011;41082;52.822;6.666;2022-09-21T12:42:39;4.57;;;0.22;;
55210;SDS011;41082;52.822;6.666;2022-09-21T12:45:18;3.67;;;0.20;;
55210;SDS011;41082;52.822;6.666;2022-09-21T12:53:19;3.92;;;0.30;;
55210;SDS011;41082;52.822;6.666;2022-09-21T13:09:45;2.63;;;0.20;;
55210;SDS011;41082;52.822;6.666;2022-09-21T13:14:45;3.38;;;0.45;;
55210;SDS011;41082;52.822;6.666;2022-09-21T13:17:20;3.80;;;0.30;;
55210;SDS011;41082;52.822;6.666;2022-09-21T13:22:44;2.33;;;0.17;;
55210;SDS011;41082;52.822;6.666;2022-09-21T13:25:25;3.75;;;0.20;;
55210;SDS011;41082;52.822;6.666;2022-09-21T13:27:57;3.00;;;0.90;;
55210;SDS011;41082;52.822;6.666;2022-09-21T13:30:47;2.95;;;0.20;;
55210;SDS011;41082;52.822;6.666;2022-09-21T13:33:37;4.00;;;0.30;;
55210;SDS011;41082;52.822;6.666;2022-09-21T13:36:08;4.10;;;0.20;;
55210;SDS011;41082;52.822;6.666;2022-09-21T13:39:12;2.72;;;0.73;;
55210;SDS011;41082;52.822;6.666;2022-09-21T13:41:43;3.72;;;0.30;;
55210;SDS011;41082;52.822;6.666;2022-09-21T13:44:17;4.85;;;0.20;;
55210;SDS011;41082;52.822;6.666;2022-09-21T13:47:01;3.53;;;0.25;;
55210;SDS011;41082;52.822;6.666;2022-09-21T13:49:32;4.38;;;0.63;;
55210;SDS011;41082;52.822;6.666;2022-09-21T13:54:47;3.35;;;0.30;;
55210;SDS011;41082;52.822;6.666;2022-09-21T14:13:24;5.22;;;0.30;;
55210;SDS011;41082;52.822;6.666;2022-09-21T14:19:01;4.28;;;0.28;;
55210;SDS011;41082;52.822;6.666;2022-09-21T14:21:28;2.50;;;0.20;;
55210;SDS011;41082;52.822;6.666;2022-09-21T14:24:40;2.25;;;0.25;;
55210;SDS011;41082;52.822;6.666;2022-09-21T14:31:55;4.40;;;0.50;;
55210;SDS011;41082;52.822;6.666;2022-09-21T14:36:55;4.72;;;0.30;;
55210;SDS011;41082;52.822;6.666;2022-09-21T14:39:24;5.03;;;0.30;;
55210;SDS011;41082;52.822;6.666;2022-09-21T14:41:58;10.20;;;0.47;;
55210;SDS011;41082;52.822;6.666;2022-09-21T14:44:29;3.33;;;0.20;;
55210;SDS011;41082;52.822;6.666;2022-09-21T14:47:14;2.97;;;0.20;;
55210;SDS011;41082;52.822;6.666;2022-09-21T14:52:42;1.58;;;0.20;;
55210;SDS011;41082;52.822;6.666;2022-09-21T14:55:46;3.33;;;0.30;;
55210;SDS011;41082;52.822;6.666;2022-09-21T14:58:25;6.45;;;0.30;;
55210;SDS011;41082;52.822;6.666;2022-09-21T15:01:33;3.85;;;0.20;;
55210;SDS011;41082;52.822;6.666;2022-09-21T15:07:33;3.72;;;0.30;;
55210;SDS011;41082;52.822;6.666;2022-09-21T15:12:58;2.65;;;0.30;;
55210;SDS011;41082;52.822;6.666;2022-09-21T15:15:39;4.80;;;0.30;;
55210;SDS011;41082;52.822;6.666;2022-09-21T15:18:21;1.70;;;0.20;;
55210;SDS011;41082;52.822;6.666;2022-09-21T15:20:56;1.30;;;0.10;;
55210;SDS011;41082;52.822;6.666;2022-09-21T15:23:38;4.43;;;0.20;;
55210;SDS011;41082;52.822;6.666;2022-09-21T15:26:08;5.70;;;0.20;;
55210;SDS011;41082;52.822;6.666;2022-09-21T15:28:41;3.00;;;0.20;;
55210;SDS011;41082;52.822;6.666;2022-09-21T15:31:15;2.65;;;0.25;;
55210;SDS011;41082;52.822;6.666;2022-09-21T15:33:41;3.92;;;0.20;;
55210;SDS011;41082;52.822;6.666;2022-09-21T15:36:23;6.40;;;0.50;;
55210;SDS011;41082;52.822;6.666;2022-09-21T15:38:51;2.60;;;0.20;;
55210;SDS011;41082;52.822;6.666;2022-09-21T15:41:43;1.70;;;0.20;;
55210;SDS011;41082;52.822;6.666;2022-09-21T15:46:56;4.45;;;0.60;;
55210;SDS011;41082;52.822;6.666;2022-09-21T15:49:25;2.05;;;0.25;;
55210;SDS011;41082;52.822;6.666;2022-09-21T15:51:54;5.65;;;0.57;;
55210;SDS011;41082;52.822;6.666;2022-09-21T15:54:35;4.45;;;0.20;;
55210;SDS011;41082;52.822;6.666;2022-09-21T15:57:20;3.63;;;0.17;;
55210;SDS011;41082;52.822;6.666;2022-09-21T15:59:49;3.90;;;0.30;;
55210;SDS011;41082;52.822;6.666;2022-09-21T16:02:18;5.75;;;0.30;;
55210;SDS011;41082;52.822;6.666;2022-09-21T16:04:47;2.42;;;0.20;;
55210;SDS011;41082;52.822;6.666;2022-09-21T16:14:51;2.72;;;0.20;;
55210;SDS011;41082;52.822;6.666;2022-09-21T16:17:19;5.25;;;0.73;;
55210;SDS011;41082;52.822;6.666;2022-09-21T16:22:23;2.35;;;0.10;;
55210;SDS011;41082;52.822;6.666;2022-09-21T16:24:54;2.75;;;0.20;;
55210;SDS011;41082;52.822;6.666;2022-09-21T16:27:23;2.25;;;0.20;;
55210;SDS011;41082;52.822;6.666;2022-09-21T16:29:54;3.05;;;0.20;;
55210;SDS011;41082;52.822;6.666;2022-09-21T16:37:41;7.13;;;0.20;;
55210;SDS011;41082;52.822;6.666;2022-09-21T16:40:08;4.32;;;0.50;;
55210;SDS011;41082;52.822;6.666;2022-09-21T16:42:34;2.65;;;0.20;;
55210;SDS011;41082;52.822;6.666;2022-09-21T16:45:00;4.03;;;0.30;;
55210;SDS011;41082;52.822;6.666;2022-09-21T16:47:35;5.45;;;0.30;;
55210;SDS011;41082;52.822;6.666;2022-09-21T16:50:01;5.40;;;0.55;;
55210;SDS011;41082;52.822;6.666;2022-09-21T16:52:31;2.92;;;0.30;;
55210;SDS011;41082;52.822;6.666;2022-09-21T16:54:57;3.70;;;0.20;;
55210;SDS011;41082;52.822;6.666;2022-09-21T16:57:23;2.63;;;0.28;;
55210;SDS011;41082;52.822;6.666;2022-09-21T16:59:49;2.13;;;0.17;;
55210;SDS011;41082;52.822;6.666;2022-09-21T17:02:15;3.75;;;0.20;;
55210;SDS011;41082;52.822;6.666;2022-09-21T17:04:41;4.00;;;0.10;;
55210;SDS011;41082;52.822;6.666;2022-09-21T17:07:11;4.50;;;0.20;;
55210;SDS011;41082;52.822;6.666;2022-09-21T17:09:41;2.97;;;0.28;;
55210;SDS011;41082;52.822;6.666;2022-09-21T17:12:12;2.90;;;0.47;;
55210;SDS011;41082;52.822;6.666;2022-09-21T17:14:40;2.42;;;0.20;;
55210;SDS011;41082;52.822;6.666;2022-09-21T17:17:20;2.67;;;0.40;;
55210;SDS011;41082;52.822;6.666;2022-09-21T17:19:50;1.88;;;0.20;;
55210;SDS011;41082;52.822;6.666;2022-09-21T17:22:17;3.53;;;0.13;;
55210;SDS011;41082;52.822;6.666;2022-09-21T17:24:47;3.47;;;0.30;;
55210;SDS011;41082;52.822;6.666;2022-09-21T17:27:14;3.17;;;0.20;;
55210;SDS011;41082;52.822;6.666;2022-09-21T17:29:45;2.88;;;0.40;;
55210;SDS011;41082;52.822;6.666;2022-09-21T17:32:13;4.50;;;0.80;;
55210;SDS011;41082;52.822;6.666;2022-09-21T17:34:40;9.32;;;0.40;;
55210;SDS011;41082;52.822;6.666;2022-09-21T17:37:06;6.13;;;0.30;;
55210;SDS011;41082;52.822;6.666;2022-09-21T17:39:34;4.72;;;0.30;;
55210;SDS011;41082;52.822;6.666;2022-09-21T17:42:16;1.73;;;0.17;;
55210;SDS011;41082;52.822;6.666;2022-09-21T17:47:26;2.85;;;0.43;;
55210;SDS011;41082;52.822;6.666;2022-09-21T17:49:53;3.38;;;0.30;;
55210;SDS011;41082;52.822;6.666;2022-09-21T17:52:23;5.03;;;0.28;;
55210;SDS011;41082;52.822;6.666;2022-09-21T17:55:08;2.92;;;0.38;;
55210;SDS011;41082;52.822;6.666;2022-09-21T17:57:39;0.93;;;0.10;;
55210;SDS011;41082;52.822;6.666;2022-09-21T18:00:17;1.15;;;0.17;;
55210;SDS011;41082;52.822;6.666;2022-09-21T18:02:45;1.92;;;0.20;;
55210;SDS011;41082;52.822;6.666;2022-09-21T18:05:17;10.88;;;0.38;;
55210;SDS011;41082;52.822;6.666;2022-09-21T18:07:46;6.13;;;0.40;;
55210;SDS011;41082;52.822;6.666;2022-09-21T18:10:13;3.85;;;0.30;;
55210;SDS011;41082;52.822;6.666;2022-09-21T18:12:52;3.90;;;0.38;;
55210;SDS011;41082;52.822;6.666;2022-09-21T18:23:46;2.33;;;0.30;;
55210;SDS011;41082;52.822;6.666;2022-09-21T18:26:24;5.30;;;0.30;;
55210;SDS011;41082;52.822;6.666;2022-09-21T18:28:51;2.05;;;0.25;;
55210;SDS011;41082;52.822;6.666;2022-09-21T18:37:16;2.55;;;0.20;;
55210;SDS011;41082;52.822;6.666;2022-09-21T18:40:15;1.88;;;0.20;;
55210;SDS011;41082;52.822;6.666;2022-09-21T18:42:51;12.93;;;6.90;;
55210;SDS011;41082;52.822;6.666;2022-09-21T18:45:26;6.32;;;3.13;;
55210;SDS011;41082;52.822;6.666;2022-09-21T18:50:52;4.25;;;1.38;;
55210;SDS011;41082;52.822;6.666;2022-09-21T18:53:44;5.57;;;0.73;;
55210;SDS011;41082;52.822;6.666;2022-09-21T18:56:13;3.05;;;0.40;;
55210;SDS011;41082;52.822;6.666;2022-09-21T18:58:39;3.80;;;0.50;;
55210;SDS011;41082;52.822;6.666;2022-09-21T19:01:11;4.05;;;0.50;;
55210;SDS011;41082;52.822;6.666;2022-09-21T19:03:38;5.72;;;0.80;;
55210;SDS011;41082;52.822;6.666;2022-09-21T19:11:43;13.27;;;6.60;;
55210;SDS011;41082;52.822;6.666;2022-09-21T19:20:03;5.55;;;0.70;;
55210;SDS011;41082;52.822;6.666;2022-09-21T19:22:47;6.15;;;1.77;;
55210;SDS011;41082;52.822;6.666;2022-09-21T19:30:56;6.72;;;2.85;;
55210;SDS011;41082;52.822;6.666;2022-09-21T19:33:28;10.13;;;4.57;;
55210;SDS011;41082;52.822;6.666;2022-09-21T19:35:56;10.25;;;4.43;;
55210;SDS011;41082;52.822;6.666;2022-09-21T19:38:24;11.52;;;4.90;;
55210;SDS011;41082;52.822;6.666;2022-09-21T19:40:54;11.05;;;5.18;;
55210;SDS011;41082;52.822;6.666;2022-09-21T19:43:39;11.20;;;5.22;;
55210;SDS011;41082;52.822;6.666;2022-09-21T19:49:36;12.80;;;6.45;;
55210;SDS011;41082;52.822;6.666;2022-09-21T19:52:18;8.73;;;3.47;;
55210;SDS011;41082;52.822;6.666;2022-09-21T19:54:53;4.70;;;1.75;;
55210;SDS011;41082;52.822;6.666;2022-09-21T19:57:37;4.03;;;0.73;;
55210;SDS011;41082;52.822;6.666;2022-09-21T20:00:22;5.07;;;1.08;;
55210;SDS011;41082;52.822;6.666;2022-09-21T20:15:56;7.22;;;3.25;;
55210;SDS011;41082;52.822;6.666;2022-09-21T20:18:46;6.53;;;3.03;;
55210;SDS011;41082;52.822;6.666;2022-09-21T20:21:14;5.88;;;2.85;;